Time;durP1;ratioP1;P1;durP2;ratioP2;P2;SDS_P1;SDS_P2;PMS_P1;PMS_P2;Temp;Humidity;BMP_temperature;BMP_pressure;BME280_temperature;BME280_humidity;BME280_pressure;Samples;Min_cycle;Max_cycle;Signal;HPM_P1;HPM_P2
2022/01/24 00:01:23;;;;;;;23.10;15.57;;;6.30;99.90;;;;;;5068684;28;20703;-79
2022/01/24 00:03:55;;;;;;;20.77;14.70;;;6.30;99.90;;;;;;5071391;28;20107;-78
2022/01/24 00:06:21;;;;;;;18.95;14.52;;;6.30;99.90;;;;;;5088769;28;20380;-79
2022/01/24 00:08:47;;;;;;;21.55;14.38;;;6.30;99.90;;;;;;5082848;28;20427;-79
2022/01/24 00:11:16;;;;;;;19.77;13.82;;;6.30;99.90;;;;;;5070019;28;20427;-79
2022/01/24 00:16:30;;;;;;;19.05;14.10;;;6.30;99.90;;;;;;5082188;28;20032;-79
2022/01/24 00:26:56;;;;;;;18.98;13.05;;;6.30;99.90;;;;;;5068774;28;20146;-78
2022/01/24 00:29:24;;;;;;;20.88;13.88;;;6.20;99.90;;;;;;5076545;28;20036;-79
2022/01/24 00:31:51;;;;;;;17.88;12.75;;;6.20;99.90;;;;;;5051458;28;20529;-79
2022/01/24 00:34:18;;;;;;;18.38;11.38;;;6.20;99.90;;;;;;5083784;28;20397;-79
2022/01/24 00:36:47;;;;;;;21.70;13.30;;;6.20;99.90;;;;;;5073520;28;20028;-79
2022/01/24 00:39:13;;;;;;;;;;;6.30;99.90;;;;;;5086895;28;20051;-78
2022/01/24 00:46:53;;;;;;;23.05;13.02;;;6.10;99.90;;;;;;5070131;28;20079;-79
2022/01/24 00:53:10;;;;;;;19.17;13.10;;;6.10;99.90;;;;;;5067189;28;20548;-79
2022/01/24 00:54:54;;;;;;;16.75;11.95;;;6.10;99.90;;;;;;5079432;28;20043;-79
2022/01/24 00:57:21;;;;;;;14.95;11.35;;;6.10;99.90;;;;;;5077544;28;20028;-79
2022/01/24 00:59:47;;;;;;;17.20;11.90;;;6.10;99.90;;;;;;5062197;28;20058;-79
2022/01/24 01:02:14;;;;;;;16.25;11.65;;;6.10;99.90;;;;;;5064233;28;20477;-78
2022/01/24 01:07:23;;;;;;;17.85;12.13;;;6.10;99.90;;;;;;5079841;28;20250;-79
2022/01/24 01:18:12;;;;;;;16.50;11.43;;;6.00;99.90;;;;;;5086241;28;20039;-79
2022/01/24 01:21:06;;;;;;;17.50;12.38;;;6.00;99.90;;;;;;5061532;28;20107;-79
2022/01/24 01:23:26;;;;;;;16.40;12.35;;;6.00;99.90;;;;;;5081517;28;20032;-78
2022/01/24 01:25:53;;;;;;;16.58;12.27;;;6.00;99.90;;;;;;5060779;28;20041;-79
2022/01/24 01:28:20;;;;;;;19.33;12.23;;;6.00;99.90;;;;;;5083505;28;20489;-79
2022/01/24 01:30:50;;;;;;;16.65;12.35;;;6.00;99.90;;;;;;5070829;28;20049;-78
2022/01/24 01:33:30;;;;;;;18.50;12.57;;;5.90;99.90;;;;;;5084282;28;20074;-79
2022/01/24 01:57:01;;;;;;;21.05;14.10;;;5.70;99.90;;;;;;5085397;28;20020;-79
2022/01/24 01:59:27;;;;;;;21.45;14.93;;;5.70;99.90;;;;;;5079215;28;20024;-79
2022/01/24 02:01:53;;;;;;;20.52;13.98;;;5.70;99.90;;;;;;5083340;28;20031;-78
2022/01/24 02:04:19;;;;;;;20.25;14.63;;;5.70;99.90;;;;;;5083047;28;20503;-79
2022/01/24 02:06:45;;;;;;;20.65;14.05;;;5.60;99.90;;;;;;5069985;28;20119;-79
2022/01/24 02:09:12;;;;;;;21.70;14.55;;;5.60;99.90;;;;;;5085020;28;20039;-79
2022/01/24 02:11:38;;;;;;;22.83;14.95;;;5.60;99.90;;;;;;5087333;28;20155;-79
2022/01/24 02:14:09;;;;;;;21.83;14.75;;;5.50;99.90;;;;;;5086844;28;20057;-78
2022/01/24 02:19:12;;;;;;;23.67;15.02;;;5.50;99.90;;;;;;5083822;28;20115;-79
2022/01/24 02:21:58;;;;;;;21.33;14.90;;;5.40;99.90;;;;;;5052253;28;20083;-79
2022/01/24 02:24:24;;;;;;;21.60;14.63;;;5.40;99.90;;;;;;5079648;28;20024;-79
2022/01/24 02:26:54;;;;;;;19.10;13.40;;;5.40;99.90;;;;;;5063844;28;20524;-79
2022/01/24 02:29:46;;;;;;;23.83;14.25;;;5.30;99.90;;;;;;5081161;28;20048;-79
2022/01/24 02:32:12;;;;;;;24.48;14.18;;;5.30;99.90;;;;;;5074437;28;20033;-79
2022/01/24 02:34:41;;;;;;;21.05;14.80;;;5.30;99.90;;;;;;5078977;28;20568;-79
2022/01/24 02:37:11;;;;;;;;;;;5.30;99.90;;;;;;5084316;28;20031;-79
2022/01/24 02:39:56;;;;;;;23.00;14.95;;;5.20;99.90;;;;;;5070102;28;20014;-79
2022/01/24 02:53:07;;;;;;;19.00;13.45;;;4.90;99.90;;;;;;5074922;28;20087;-79
2022/01/24 02:55:34;;;;;;;22.60;15.30;;;4.90;99.90;;;;;;5054852;28;20463;-79
2022/01/24 02:58:00;;;;;;;25.13;15.82;;;4.80;99.90;;;;;;5083872;28;20483;-78
2022/01/24 03:00:26;;;;;;;22.08;14.93;;;4.70;99.90;;;;;;5058882;28;20028;-79
2022/01/24 03:02:51;;;;;;;20.17;14.30;;;4.70;99.90;;;;;;5054547;28;20165;-78
2022/01/24 03:05:17;;;;;;;25.77;15.65;;;4.70;99.90;;;;;;5080434;28;20507;-79
2022/01/24 03:07:43;;;;;;;21.08;14.90;;;4.60;99.90;;;;;;5082506;28;20618;-79
2022/01/24 03:10:14;;;;;;;25.38;14.90;;;4.50;99.90;;;;;;5070335;28;20153;-79
2022/01/24 03:12:44;;;;;;;21.60;14.75;;;4.50;99.90;;;;;;5065974;28;20033;-79
2022/01/24 03:15:11;;;;;;;21.33;14.07;;;4.50;99.90;;;;;;5076121;28;20043;-79
2022/01/24 03:17:37;;;;;;;20.15;13.18;;;4.40;99.90;;;;;;5075574;28;20035;-79
2022/01/24 03:20:04;;;;;;;23.83;15.73;;;4.30;99.90;;;;;;5080079;28;20056;-79
2022/01/24 03:22:30;;;;;;;23.85;15.80;;;4.30;99.90;;;;;;5075265;28;20542;-79
2022/01/24 03:24:56;;;;;;;23.50;15.88;;;4.20;99.90;;;;;;5068308;28;20169;-79
2022/01/24 03:27:22;;;;;;;22.40;15.05;;;4.20;99.90;;;;;;5055824;28;20131;-79
2022/01/24 03:29:48;;;;;;;21.02;14.05;;;4.10;99.90;;;;;;5050654;28;20489;-78
2022/01/24 03:32:13;;;;;;;21.70;14.00;;;4.00;99.90;;;;;;5077396;28;20043;-78
2022/01/24 03:34:40;;;;;;;21.52;14.50;;;4.00;99.90;;;;;;5070951;28;20047;-78
2022/01/24 03:37:06;;;;;;;23.45;15.48;;;4.00;99.90;;;;;;5068291;28;20162;-78
2022/01/24 03:39:33;;;;;;;23.52;14.60;;;4.00;99.90;;;;;;5083500;28;20107;-79
2022/01/24 03:41:59;;;;;;;22.65;15.50;;;4.00;99.90;;;;;;5079224;28;20366;-79
2022/01/24 03:44:26;;;;;;;22.23;15.40;;;4.00;99.90;;;;;;5082574;28;20454;-79
2022/01/24 03:52:08;;;;;;;23.83;14.77;;;3.90;99.90;;;;;;5081511;28;20456;-79
2022/01/24 03:54:34;;;;;;;21.30;13.90;;;3.90;99.90;;;;;;5057315;28;20119;-79
2022/01/24 03:57:00;;;;;;;23.13;14.98;;;3.80;99.90;;;;;;5082368;28;20073;-79
2022/01/24 03:59:26;;;;;;;24.40;15.38;;;3.70;99.90;;;;;;5074059;28;20028;-78
2022/01/24 04:01:51;;;;;;;25.63;15.73;;;3.70;99.90;;;;;;5072938;28;20037;-78
2022/01/24 04:04:17;;;;;;;27.48;15.15;;;3.70;99.90;;;;;;5052478;28;20036;-79
2022/01/24 04:06:43;;;;;;;25.35;16.02;;;3.70;99.90;;;;;;5053293;28;20044;-79
2022/01/24 04:09:08;;;;;;;24.08;16.83;;;3.60;99.90;;;;;;5052773;28;20037;-79
2022/01/24 04:11:37;;;;;;;25.85;16.33;;;3.60;99.90;;;;;;5063489;28;20024;-78
2022/01/24 04:17:03;;;;;;;24.05;15.38;;;3.60;99.90;;;;;;5077999;28;20040;-79
2022/01/24 04:21:57;;;;;;;24.13;14.52;;;3.50;99.90;;;;;;5068589;28;20431;-79
2022/01/24 04:24:25;;;;;;;25.52;14.95;;;3.50;99.90;;;;;;5069661;28;20041;-79
2022/01/24 04:26:50;;;;;;;29.30;15.80;;;3.40;99.90;;;;;;5078842;28;20028;-79
2022/01/24 04:29:16;;;;;;;26.02;16.38;;;3.40;99.90;;;;;;5072107;28;20528;-78
2022/01/24 04:31:43;;;;;;;27.65;17.38;;;3.40;99.90;;;;;;5051597;28;20040;-79
2022/01/24 04:34:09;;;;;;;32.40;17.50;;;3.30;99.90;;;;;;5072448;28;20036;-79
2022/01/24 04:36:35;;;;;;;28.73;16.55;;;3.30;99.90;;;;;;5068220;28;20035;-79
2022/01/24 04:39:02;;;;;;;30.58;17.63;;;3.30;99.90;;;;;;5052576;28;20090;-79
2022/01/24 04:41:32;;;;;;;26.10;16.27;;;3.30;99.90;;;;;;5061002;28;20119;-79
2022/01/24 04:51:50;;;;;;;28.05;17.63;;;3.40;99.90;;;;;;5069145;28;20031;-79
2022/01/24 04:57:01;;;;;;;33.65;17.58;;;3.40;99.90;;;;;;5068879;28;20039;-77
2022/01/24 04:59:27;;;;;;;24.92;16.40;;;3.40;99.90;;;;;;5072619;28;20035;-77
2022/01/24 05:01:55;;;;;;;25.67;15.63;;;3.40;99.90;;;;;;5058514;28;20033;-77
2022/01/24 05:04:20;;;;;;;26.85;16.08;;;3.40;99.90;;;;;;5060157;28;20119;-77
2022/01/24 05:06:46;;;;;;;29.77;16.05;;;3.40;99.90;;;;;;5081591;28;20116;-77
2022/01/24 05:09:12;;;;;;;34.83;17.13;;;3.40;99.90;;;;;;5053225;28;20465;-77
2022/01/24 05:11:46;;;;;;;29.80;16.08;;;3.40;99.90;;;;;;5055590;28;20111;-77
2022/01/24 05:24:49;;;;;;;27.60;17.10;;;3.50;99.90;;;;;;5067821;28;20032;-77
2022/01/24 05:27:15;;;;;;;32.70;17.63;;;3.50;99.90;;;;;;5050477;28;20074;-77
2022/01/24 05:29:40;;;;;;;26.90;17.55;;;3.50;99.90;;;;;;5069127;28;20121;-77
2022/01/24 05:32:08;;;;;;;28.98;16.92;;;3.50;99.90;;;;;;5067992;28;20170;-77
2022/01/24 05:34:34;;;;;;;29.77;18.20;;;3.60;99.90;;;;;;5050832;28;20068;-77
2022/01/24 05:37:00;;;;;;;33.35;18.88;;;3.60;99.90;;;;;;5051562;28;20036;-77
2022/01/24 05:39:26;;;;;;;32.03;18.55;;;3.60;99.90;;;;;;5061259;28;20097;-77
2022/01/24 05:41:51;;;;;;;29.05;18.77;;;3.60;99.90;;;;;;5081041;28;20059;-77
2022/01/24 05:44:18;;;;;;;25.30;16.40;;;3.60;99.90;;;;;;5069633;28;20031;-77
2022/01/24 05:46:44;;;;;;;30.00;18.40;;;3.70;99.90;;;;;;5075803;28;20201;-77
2022/01/24 05:49:09;;;;;;;28.35;17.58;;;3.70;99.90;;;;;;5069047;28;20047;-77
2022/01/24 05:51:35;;;;;;;29.75;17.20;;;3.70;99.90;;;;;;5058729;28;20024;-77
2022/01/24 05:54:01;;;;;;;28.38;16.63;;;3.70;99.90;;;;;;5059324;28;20041;-77
2022/01/24 05:56:27;;;;;;;32.15;18.48;;;3.70;99.90;;;;;;5067450;28;20478;-77
2022/01/24 05:58:52;;;;;;;28.50;17.35;;;3.70;99.90;;;;;;5050324;28;20029;-77
2022/01/24 06:01:18;;;;;;;29.77;17.65;;;3.70;99.90;;;;;;5068771;28;20040;-77
2022/01/24 06:03:44;;;;;;;27.48;17.90;;;3.70;99.90;;;;;;5066813;28;20040;-77
2022/01/24 06:06:09;;;;;;;27.25;16.00;;;3.70;99.90;;;;;;5050504;28;20447;-77
2022/01/24 06:08:35;;;;;;;22.60;15.25;;;3.80;99.90;;;;;;5072393;28;20036;-77
2022/01/24 06:11:01;;;;;;;23.30;14.75;;;3.80;99.90;;;;;;5075753;28;20089;-77
2022/01/24 06:13:27;;;;;;;22.83;15.15;;;3.80;99.90;;;;;;5053946;28;20063;-77
2022/01/24 06:15:53;;;;;;;23.98;14.40;;;3.80;99.90;;;;;;5071446;28;20454;-77
2022/01/24 06:18:20;;;;;;;21.33;14.27;;;3.80;99.90;;;;;;5082601;28;20032;-77
2022/01/24 06:20:46;;;;;;;20.27;14.88;;;3.90;99.90;;;;;;5073092;28;20032;-76
2022/01/24 06:23:18;;;;;;;24.58;14.98;;;3.90;99.90;;;;;;5062368;28;20036;-77
2022/01/24 06:25:44;;;;;;;23.35;14.68;;;3.90;99.90;;;;;;5077331;28;20084;-77
2022/01/24 06:28:10;;;;;;;24.10;16.05;;;3.90;99.90;;;;;;5083234;28;20048;-77
2022/01/24 06:30:36;;;;;;;22.88;15.70;;;3.90;99.90;;;;;;5062910;28;20473;-77
2022/01/24 06:33:01;;;;;;;24.20;14.75;;;4.00;99.90;;;;;;5054217;28;20024;-77
2022/01/24 06:35:27;;;;;;;22.80;14.70;;;3.90;99.90;;;;;;5056274;28;20035;-77
2022/01/24 06:37:52;;;;;;;20.33;14.23;;;4.00;99.90;;;;;;5084239;28;20055;-77
2022/01/24 06:40:18;;;;;;;23.70;14.27;;;4.10;99.90;;;;;;5073652;28;20120;-76
2022/01/24 06:42:45;;;;;;;23.73;14.27;;;4.10;99.90;;;;;;5062269;28;20051;-77
2022/01/24 06:45:11;;;;;;;21.90;14.52;;;4.10;99.90;;;;;;5060691;28;20439;-77
2022/01/24 06:47:37;;;;;;;20.63;13.90;;;4.10;99.90;;;;;;5071577;28;20039;-77
2022/01/24 06:50:04;;;;;;;22.20;14.02;;;4.00;99.90;;;;;;5056321;28;20041;-76
2022/01/24 06:52:30;;;;;;;24.60;13.07;;;4.00;99.90;;;;;;5090804;28;20029;-77
2022/01/24 06:54:56;;;;;;;19.85;13.38;;;3.90;99.90;;;;;;5080420;28;20047;-77
2022/01/24 06:57:21;;;;;;;22.65;14.48;;;4.00;99.90;;;;;;5053694;28;20089;-77
2022/01/24 06:59:47;;;;;;;21.30;14.30;;;3.90;99.90;;;;;;5078194;28;20164;-77
2022/01/24 07:02:15;;;;;;;19.85;13.95;;;3.90;99.90;;;;;;5091640;28;20059;-77
2022/01/24 07:04:41;;;;;;;20.98;12.70;;;3.90;99.90;;;;;;5062263;28;20085;-77
2022/01/24 07:07:08;;;;;;;24.23;13.90;;;3.90;99.90;;;;;;5073773;28;20036;-77
2022/01/24 07:09:35;;;;;;;22.27;13.05;;;3.90;99.90;;;;;;5088495;28;20035;-77
2022/01/24 07:12:01;;;;;;;20.23;14.32;;;3.90;99.90;;;;;;5071691;28;20028;-77
2022/01/24 07:14:27;;;;;;;22.70;15.48;;;3.90;99.90;;;;;;5079882;28;20542;-77
2022/01/24 07:19:22;;;;;;;22.95;15.95;;;3.90;99.90;;;;;;5069274;28;20559;-77
2022/01/24 07:21:48;;;;;;;23.33;14.70;;;3.90;99.90;;;;;;5073529;28;20067;-77
2022/01/24 07:24:14;;;;;;;21.27;13.70;;;3.90;99.90;;;;;;5083572;28;20028;-77
2022/01/24 07:26:39;;;;;;;24.38;15.88;;;3.90;99.90;;;;;;5077124;28;20548;-77
2022/01/24 07:29:05;;;;;;;21.15;14.73;;;3.90;99.90;;;;;;5085644;28;20044;-77
2022/01/24 07:31:31;;;;;;;24.48;14.27;;;3.90;99.90;;;;;;5053103;28;20127;-77
2022/01/24 07:33:57;;;;;;;21.35;15.30;;;3.90;99.90;;;;;;5069246;28;20068;-77
2022/01/24 07:36:26;;;;;;;23.67;15.73;;;3.90;99.90;;;;;;5064414;28;20036;-77
2022/01/24 07:38:52;;;;;;;22.98;15.82;;;3.90;99.90;;;;;;5084216;28;20396;-77
2022/01/24 07:41:24;;;;;;;23.05;15.63;;;3.90;99.90;;;;;;5052846;28;20089;-77
2022/01/24 07:43:50;;;;;;;25.77;15.90;;;4.00;99.90;;;;;;5051737;28;20041;-76
2022/01/24 07:46:16;;;;;;;22.05;15.13;;;3.90;99.90;;;;;;5068988;28;20422;-77
2022/01/24 07:48:42;;;;;;;21.80;15.95;;;3.90;99.90;;;;;;5079342;28;20028;-77
2022/01/24 07:51:07;;;;;;;24.30;15.95;;;4.00;99.90;;;;;;5052363;28;20056;-77
2022/01/24 07:53:33;;;;;;;23.67;15.52;;;4.00;99.90;;;;;;5079594;28;20036;-77
2022/01/24 07:55:59;;;;;;;20.50;15.13;;;4.00;99.90;;;;;;5052421;28;20119;-77
2022/01/24 07:58:25;;;;;;;21.02;14.77;;;4.00;99.90;;;;;;5069343;28;20489;-76
2022/01/24 08:00:51;;;;;;;23.10;15.07;;;4.00;99.90;;;;;;5069131;28;20150;-76
2022/01/24 08:03:18;;;;;;;22.88;14.55;;;4.10;99.90;;;;;;5088432;28;20106;-77
2022/01/24 08:05:43;;;;;;;21.05;14.25;;;4.10;99.90;;;;;;5090713;28;20530;-77
2022/01/24 08:08:09;;;;;;;19.33;13.50;;;4.20;99.90;;;;;;5071780;28;20032;-77
2022/01/24 08:10:36;;;;;;;21.73;13.52;;;4.20;99.90;;;;;;5058018;28;20127;-76
2022/01/24 08:13:02;;;;;;;21.55;13.75;;;4.20;99.90;;;;;;5070307;28;20113;-76
2022/01/24 08:15:27;;;;;;;19.48;13.48;;;4.20;99.90;;;;;;5069832;28;20466;-77
2022/01/24 08:17:53;;;;;;;18.25;13.05;;;4.20;99.90;;;;;;5054990;28;20028;-77
2022/01/24 08:20:22;;;;;;;17.77;12.40;;;4.30;99.90;;;;;;5052257;28;20508;-77
2022/01/24 08:22:48;;;;;;;20.45;13.68;;;4.20;99.90;;;;;;5068837;28;20024;-76
2022/01/24 08:25:16;;;;;;;19.08;13.65;;;4.20;99.90;;;;;;5080976;28;20493;-77
2022/01/24 08:27:42;;;;;;;22.10;12.95;;;4.10;99.90;;;;;;5069699;28;20468;-77
2022/01/24 08:30:13;;;;;;;19.35;13.57;;;4.10;99.90;;;;;;5068585;28;20119;-76
2022/01/24 08:32:40;;;;;;;19.80;13.35;;;4.10;99.90;;;;;;5048330;28;20040;-77
2022/01/24 08:35:06;;;;;;;19.00;13.65;;;4.20;99.90;;;;;;5084156;28;20150;-76
2022/01/24 08:37:33;;;;;;;21.50;14.30;;;4.20;99.90;;;;;;5062365;28;20092;-77
2022/01/24 08:39:59;;;;;;;22.75;14.00;;;4.10;99.90;;;;;;5088899;28;20019;-77
2022/01/24 08:47:26;;;;;;;19.53;12.77;;;4.20;99.90;;;;;;5075418;28;20086;-77
2022/01/24 08:49:52;;;;;;;17.27;12.48;;;4.30;99.90;;;;;;5068578;28;20025;-77
2022/01/24 08:52:18;;;;;;;17.50;11.95;;;4.30;99.90;;;;;;5067930;28;20565;-77
2022/01/24 08:54:44;;;;;;;17.02;11.82;;;4.30;99.90;;;;;;5081781;28;20484;-77
2022/01/24 08:57:09;;;;;;;18.83;12.90;;;4.40;99.90;;;;;;5069114;28;20024;-77
2022/01/24 08:59:37;;;;;;;15.10;11.57;;;4.40;99.90;;;;;;5051573;28;20060;-77
2022/01/24 09:02:03;;;;;;;16.83;11.88;;;4.40;99.90;;;;;;5068270;28;20020;-77
2022/01/24 09:04:29;;;;;;;17.65;12.38;;;4.50;99.90;;;;;;5070340;28;20046;-77
2022/01/24 09:06:59;;;;;;;19.20;12.77;;;4.50;99.90;;;;;;5070856;28;20046;-77
2022/01/24 09:09:25;;;;;;;16.20;12.00;;;4.60;99.90;;;;;;5088500;28;20062;-77
2022/01/24 09:11:52;;;;;;;19.30;12.15;;;4.60;99.90;;;;;;5078470;28;20488;-77
2022/01/24 09:14:17;;;;;;;17.42;11.25;;;4.70;99.90;;;;;;5047523;28;20086;-77
2022/01/24 09:16:43;;;;;;;18.10;12.07;;;4.70;99.90;;;;;;5066808;28;20477;-77
2022/01/24 09:19:09;;;;;;;16.13;11.25;;;4.80;99.90;;;;;;5045998;28;20482;-76
2022/01/24 09:21:35;;;;;;;18.17;11.50;;;4.80;99.90;;;;;;5050811;28;20458;-77
2022/01/24 09:24:04;;;;;;;21.48;11.73;;;4.80;99.90;;;;;;5051870;28;20076;-77
2022/01/24 09:26:30;;;;;;;17.30;11.48;;;4.80;99.90;;;;;;5067522;28;20079;-77
2022/01/24 09:28:56;;;;;;;18.23;11.45;;;4.90;99.90;;;;;;5050933;28;20075;-77
2022/01/24 09:31:22;;;;;;;22.45;12.10;;;4.90;99.90;;;;;;5068246;28;20554;-77
2022/01/24 09:33:49;;;;;;;17.98;12.02;;;4.90;99.90;;;;;;5068236;28;20094;-77
2022/01/24 09:36:15;;;;;;;17.88;12.10;;;4.90;99.90;;;;;;5051149;28;20485;-77
2022/01/24 09:38:40;;;;;;;19.17;12.63;;;4.90;99.90;;;;;;5067890;28;20032;-77
2022/01/24 09:41:08;;;;;;;23.27;11.45;;;5.00;99.90;;;;;;5053067;28;20334;-77
2022/01/24 09:43:34;;;;;;;20.38;11.43;;;5.00;99.90;;;;;;5074005;28;20488;-77
2022/01/24 09:46:01;;;;;;;17.63;11.35;;;5.10;99.90;;;;;;5061671;28;20086;-77
2022/01/24 09:48:27;;;;;;;16.67;11.57;;;5.10;99.90;;;;;;5091491;28;20028;-79
2022/01/24 09:50:53;;;;;;;18.65;12.15;;;5.10;99.90;;;;;;5091124;28;20028;-79
2022/01/24 09:53:21;;;;;;;16.17;10.95;;;5.20;99.90;;;;;;5057108;28;20032;-80
2022/01/24 09:55:47;;;;;;;21.00;12.50;;;5.20;99.90;;;;;;5072385;28;20481;-80
2022/01/24 09:58:12;;;;;;;20.92;13.00;;;5.20;99.90;;;;;;5051726;28;20036;-80
2022/01/24 10:00:39;;;;;;;21.23;11.55;;;5.30;99.90;;;;;;5051370;28;20032;-79
2022/01/24 10:03:08;;;;;;;19.70;12.15;;;5.30;99.90;;;;;;5057463;28;20040;-80
2022/01/24 10:05:37;;;;;;;;;;;5.30;99.90;;;;;;5086166;28;20458;-79
2022/01/24 10:08:08;;;;;;;19.90;12.48;;;5.40;99.90;;;;;;5071127;28;20383;-80
2022/01/24 10:10:35;;;;;;;22.90;12.05;;;5.40;99.90;;;;;;5071039;28;20457;-80
2022/01/24 10:16:31;;;;;;;20.30;11.27;;;5.50;99.90;;;;;;5086247;28;20098;-81
2022/01/24 10:19:17;;;;;;;17.90;11.68;;;5.60;99.90;;;;;;5069837;28;20033;-81
2022/01/24 10:21:48;;;;;;;21.67;12.35;;;5.60;99.90;;;;;;5072361;28;20201;-81
2022/01/24 10:24:44;;;;;;;22.88;13.35;;;5.70;99.90;;;;;;5074238;28;20070;-88
2022/01/24 10:27:17;;;;;;;25.40;13.00;;;5.70;99.90;;;;;;5067721;28;20496;-82
2022/01/24 10:29:47;;;;;;;22.52;15.13;;;5.80;99.90;;;;;;5077589;28;20040;-79
2022/01/24 10:32:42;;;;;;;23.05;14.15;;;5.90;99.90;;;;;;5089697;28;20119;-78
2022/01/24 10:35:36;;;;;;;24.83;14.40;;;5.90;99.90;;;;;;5091187;28;20082;-79
2022/01/24 10:38:29;;;;;;;26.88;15.20;;;6.00;99.90;;;;;;5090884;28;20032;-79
2022/01/24 10:41:16;;;;;;;23.25;14.30;;;6.00;99.90;;;;;;5050433;28;20033;-79
2022/01/24 10:43:43;;;;;;;22.13;13.40;;;6.10;99.90;;;;;;5050655;28;20032;-79
2022/01/24 10:46:09;;;;;;;23.85;15.32;;;6.10;99.90;;;;;;5034198;28;20029;-79
2022/01/24 10:48:43;;;;;;;26.30;15.07;;;6.20;99.90;;;;;;5054307;28;20056;-79
2022/01/24 10:51:17;;;;;;;25.45;16.50;;;6.10;99.90;;;;;;5070217;28;20024;-79
2022/01/24 10:53:46;;;;;;;26.92;17.65;;;6.20;99.90;;;;;;5069143;28;20032;-79
2022/01/24 10:56:38;;;;;;;26.33;17.60;;;6.30;99.90;;;;;;5069417;28;20142;-79
2022/01/24 10:59:13;;;;;;;25.17;17.02;;;6.30;99.90;;;;;;5069234;28;20033;-76
2022/01/24 11:01:40;;;;;;;27.25;18.60;;;6.30;99.90;;;;;;5070854;28;20074;-75
2022/01/24 11:04:09;;;;;;;26.33;17.42;;;6.30;99.90;;;;;;5071711;28;20086;-75
2022/01/24 11:06:38;;;;;;;27.10;17.13;;;6.30;99.90;;;;;;5067606;28;20036;-75
2022/01/24 11:09:19;;;;;;;26.20;17.35;;;6.40;99.90;;;;;;5070312;28;20040;-76
2022/01/24 11:11:46;;;;;;;27.90;17.63;;;6.50;99.90;;;;;;5080351;28;20311;-76
2022/01/24 11:14:16;;;;;;;27.63;18.20;;;6.50;99.90;;;;;;5069616;28;20388;-75
2022/01/24 11:16:42;;;;;;;32.85;19.70;;;6.50;99.90;;;;;;5074525;28;20012;-75
2022/01/24 11:19:15;;;;;;;32.90;19.50;;;6.50;99.90;;;;;;5069940;28;20037;-76
2022/01/24 11:21:43;;;;;;;33.03;19.65;;;6.60;99.90;;;;;;5070291;28;20174;-76
2022/01/24 11:24:10;;;;;;;27.97;18.07;;;6.60;99.90;;;;;;5071909;28;20028;-76
2022/01/24 11:26:37;;;;;;;32.80;18.48;;;6.70;99.90;;;;;;5081334;28;20044;-76
2022/01/24 11:29:04;;;;;;;31.33;20.10;;;6.70;99.90;;;;;;5069751;28;20041;-76
2022/01/24 11:31:43;;;;;;;27.88;19.23;;;6.80;99.90;;;;;;5084240;28;20064;-75
2022/01/24 11:34:13;;;;;;;;;;;6.80;99.80;;;;;;5078802;28;20044;-75
2022/01/24 11:36:43;;;;;;;26.77;16.92;;;6.80;99.90;;;;;;5080695;28;20378;-76
2022/01/24 11:39:08;;;;;;;27.70;18.17;;;6.90;99.80;;;;;;5079576;28;20504;-76
2022/01/24 11:41:38;;;;;;;26.67;18.13;;;7.00;99.90;;;;;;5071238;28;20059;-75
2022/01/24 11:44:16;;;;;;;26.83;17.70;;;7.00;99.40;;;;;;5072422;28;20150;-75
2022/01/24 11:46:52;;;;;;;26.98;17.85;;;7.00;99.70;;;;;;5051649;28;20041;-77
2022/01/24 11:49:27;;;;;;;26.27;18.00;;;7.10;99.60;;;;;;5080614;28;20485;-76
2022/01/24 11:52:13;;;;;;;27.75;19.05;;;7.10;99.10;;;;;;5071896;28;20028;-76
2022/01/24 11:57:24;;;;;;;27.83;17.65;;;7.30;99.00;;;;;;5074268;28;20392;-76
2022/01/24 12:00:05;;;;;;;26.17;17.65;;;7.30;99.00;;;;;;5068272;28;20024;-76
2022/01/24 12:02:40;;;;;;;27.48;18.70;;;7.50;99.10;;;;;;5076812;28;20508;-76
2022/01/24 12:05:13;;;;;;;25.23;17.15;;;7.50;98.90;;;;;;5058646;28;20036;-76
2022/01/24 12:07:51;;;;;;;27.60;17.55;;;7.60;98.80;;;;;;5075080;28;20042;-79
2022/01/24 12:10:23;;;;;;;29.70;17.50;;;7.60;98.60;;;;;;5054298;28;20490;-80
2022/01/24 12:12:56;;;;;;;27.90;17.35;;;7.70;98.40;;;;;;5068317;28;20031;-80
2022/01/24 12:15:37;;;;;;;29.67;18.38;;;7.70;98.40;;;;;;5066567;28;20043;-80
2022/01/24 12:18:26;;;;;;;23.58;16.73;;;7.80;98.30;;;;;;5078607;28;20043;-80
2022/01/24 12:20:59;;;;;;;25.77;16.73;;;7.90;98.20;;;;;;5061070;28;20051;-81
2022/01/24 12:23:39;;;;;;;27.60;16.95;;;7.90;97.80;;;;;;5064708;28;20411;-80
2022/01/24 12:26:19;;;;;;;28.27;16.45;;;8.00;98.00;;;;;;5074411;28;20056;-80
2022/01/24 12:28:50;;;;;;;26.60;16.50;;;8.10;98.10;;;;;;5069670;28;20043;-80
2022/01/24 12:31:23;;;;;;;28.95;19.55;;;8.10;98.10;;;;;;5068492;28;20034;-80
2022/01/24 12:33:55;;;;;;;29.15;20.27;;;8.10;97.30;;;;;;5068682;28;20144;-79
2022/01/24 12:36:39;;;;;;;34.38;20.70;;;7.90;96.30;;;;;;5069409;28;20020;-80
2022/01/24 12:39:14;;;;;;;30.60;20.30;;;7.60;96.50;;;;;;5070506;28;20023;-80
2022/01/24 12:41:46;;;;;;;28.42;18.98;;;7.30;96.70;;;;;;5068402;28;20016;-80
2022/01/24 12:46:58;;;;;;;29.63;19.50;;;7.10;98.20;;;;;;5037586;28;20122;-80
2022/01/24 12:49:27;;;;;;;28.52;20.02;;;7.20;98.50;;;;;;5054929;28;20028;-81
2022/01/24 12:51:53;;;;;;;29.23;20.33;;;7.30;98.60;;;;;;5084573;28;20455;-80
2022/01/24 12:54:18;;;;;;;30.83;19.67;;;7.30;98.10;;;;;;5067548;28;20127;-80
2022/01/24 12:56:44;;;;;;;36.35;21.70;;;7.30;97.80;;;;;;5067619;28;20127;-80
2022/01/24 12:59:10;;;;;;;29.52;19.73;;;7.30;97.40;;;;;;5051369;28;20131;-80
2022/01/24 13:01:37;;;;;;;37.08;22.08;;;7.30;97.70;;;;;;5061190;28;20644;-80
2022/01/24 13:04:10;;;;;;;31.95;21.13;;;7.40;97.90;;;;;;5079761;28;20043;-81
2022/01/24 13:06:43;;;;;;;32.40;20.17;;;7.50;97.80;;;;;;5078462;28;20020;-80
2022/01/24 13:09:24;;;;;;;29.70;19.42;;;7.50;97.80;;;;;;5068776;28;20025;-80
2022/01/24 13:11:53;;;;;;;32.58;19.80;;;7.60;97.80;;;;;;5068052;28;20025;-80
2022/01/24 13:25:15;;;;;;;28.17;17.38;;;8.00;97.60;;;;;;5068003;28;20028;-80
2022/01/24 13:27:50;;;;;;;26.70;17.38;;;8.10;97.40;;;;;;5067391;28;20024;-77
2022/01/24 13:30:37;;;;;;;28.58;18.00;;;8.10;97.30;;;;;;5048734;28;20409;-80
2022/01/24 13:33:05;;;;;;;24.67;16.45;;;8.20;97.00;;;;;;5050088;28;20031;-80
2022/01/24 13:35:41;;;;;;;31.52;17.60;;;8.20;97.10;;;;;;5050537;28;20151;-80
2022/01/24 13:38:25;;;;;;;29.40;17.08;;;8.20;97.20;;;;;;5053941;28;20027;-79
2022/01/24 13:41:27;;;;;;;30.45;18.85;;;8.30;97.20;;;;;;5070491;28;20021;-79
2022/01/24 13:43:45;;;;;;;26.98;18.13;;;8.30;97.30;;;;;;5066512;28;20065;-79
2022/01/24 13:46:20;;;;;;;29.30;18.15;;;8.40;96.80;;;;;;5069665;28;20071;-79
2022/01/24 13:48:47;;;;;;;24.98;17.75;;;8.30;95.60;;;;;;5069410;28;20048;-79
2022/01/24 13:51:15;;;;;;;28.73;18.52;;;8.20;96.00;;;;;;5069107;28;20086;-79
2022/01/24 13:53:42;;;;;;;28.37;18.23;;;8.20;96.30;;;;;;5069146;28;20056;-80
2022/01/24 13:56:24;;;;;;;27.25;17.75;;;8.10;96.50;;;;;;5069281;28;20132;-80
2022/01/24 13:59:23;;;;;;;29.65;18.27;;;8.20;96.70;;;;;;5068998;28;20452;-80
2022/01/24 14:01:59;;;;;;;26.30;18.13;;;8.10;96.80;;;;;;5069061;28;20021;-80
2022/01/24 14:04:48;;;;;;;28.35;19.15;;;8.10;96.70;;;;;;5069234;28;20032;-80
2022/01/24 14:07:28;;;;;;;27.42;17.77;;;8.10;96.50;;;;;;5068941;28;20078;-80
2022/01/24 14:10:02;;;;;;;28.58;19.05;;;8.10;96.70;;;;;;5070058;28;20036;-80
2022/01/24 14:12:52;;;;;;;28.60;18.58;;;8.30;96.90;;;;;;5068878;28;20488;-80
2022/01/24 14:20:43;;;;;;;25.65;15.82;;;8.40;96.80;;;;;;5069998;28;19904;-80
2022/01/24 14:23:35;;;;;;;25.83;16.27;;;8.40;96.80;;;;;;5068652;28;20048;-80
2022/01/24 14:26:21;;;;;;;26.58;16.50;;;8.40;96.90;;;;;;5068294;28;20142;-79
2022/01/24 14:28:48;;;;;;;24.92;15.52;;;8.20;96.80;;;;;;5068761;28;20140;-80
2022/01/24 14:31:16;;;;;;;23.17;16.38;;;8.20;96.90;;;;;;5072382;28;20111;-80
2022/01/24 14:33:44;;;;;;;25.25;16.73;;;8.10;96.80;;;;;;5054154;28;20025;-80
2022/01/24 14:36:17;;;;;;;23.23;15.05;;;8.00;96.90;;;;;;5070551;28;20054;-80
2022/01/24 14:39:04;;;;;;;21.00;14.40;;;7.90;97.00;;;;;;5071652;28;20081;-80
2022/01/24 14:41:37;;;;;;;23.38;14.95;;;7.80;97.20;;;;;;5070732;28;20021;-80
2022/01/24 14:46:50;;;;;;;23.65;14.75;;;7.70;97.50;;;;;;5070694;28;20094;-80
2022/01/24 14:49:20;;;;;;;20.88;13.70;;;7.60;97.90;;;;;;5070429;28;20032;-81
2022/01/24 14:51:47;;;;;;;20.35;13.35;;;7.60;97.80;;;;;;5067211;28;20040;-80
2022/01/24 14:54:15;;;;;;;22.75;13.45;;;7.50;97.90;;;;;;5070455;28;20032;-80
2022/01/24 14:56:43;;;;;;;18.85;12.05;;;7.50;98.00;;;;;;5073579;28;20021;-80
2022/01/24 14:59:09;;;;;;;19.45;13.07;;;7.50;98.00;;;;;;5070579;28;20043;-79
2022/01/24 15:01:35;;;;;;;19.10;12.43;;;7.40;98.10;;;;;;5099042;28;20830;-81